createdAt,value
2018-07-16T00:01:02.506Z,6.70
2018-07-16T00:03:31.240Z,6.97
2018-07-16T00:05:59.949Z,7.00
2018-07-16T00:08:28.627Z,6.80
2018-07-16T00:10:57.299Z,7.63
2018-07-16T00:13:25.927Z,7.23
2018-07-16T00:15:54.590Z,7.10
2018-07-16T00:18:23.265Z,7.50
2018-07-16T00:20:51.910Z,6.67
2018-07-16T00:23:20.543Z,6.87
2018-07-16T00:25:49.183Z,6.80
2018-07-16T00:28:17.875Z,7.30
2018-07-16T00:30:46.489Z,7.43
2018-07-16T00:33:15.147Z,7.00
2018-07-16T00:35:43.843Z,6.73
2018-07-16T00:38:12.506Z,7.23
2018-07-16T00:40:41.156Z,6.97
2018-07-16T00:43:09.809Z,6.60
2018-07-16T00:45:38.471Z,7.00
2018-07-16T00:48:07.169Z,6.80
2018-07-16T00:50:35.855Z,7.57
2018-07-16T00:53:04.508Z,7.80
2018-07-16T00:55:33.159Z,7.40
2018-07-16T00:58:01.795Z,6.67
2018-07-16T01:00:30.511Z,8.67
2018-07-16T01:02:59.134Z,7.13
2018-07-16T01:05:27.755Z,6.90
2018-07-16T01:07:56.398Z,6.83
2018-07-16T01:10:25.036Z,7.27
2018-07-16T01:12:53.709Z,8.50
2018-07-16T01:15:22.428Z,7.00
2018-07-16T01:17:51.043Z,6.80
2018-07-16T01:20:19.746Z,7.27
2018-07-16T01:22:48.440Z,6.83
2018-07-16T01:25:17.072Z,9.20
2018-07-16T01:27:45.690Z,6.27
2018-07-16T01:30:14.386Z,6.87
2018-07-16T01:32:42.990Z,7.30
2018-07-16T01:35:11.671Z,7.20
2018-07-16T01:37:40.324Z,7.23
2018-07-16T01:40:09.030Z,7.60
2018-07-16T01:42:37.707Z,10.43
2018-07-16T01:45:06.385Z,8.60
2018-07-16T01:47:35.130Z,7.30
2018-07-16T01:50:03.906Z,7.13
2018-07-16T01:52:32.558Z,6.67
2018-07-16T01:55:01.181Z,7.33
2018-07-16T01:57:29.848Z,7.07
2018-07-16T01:59:58.523Z,7.60
2018-07-16T02:02:27.163Z,7.67
2018-07-16T02:04:55.878Z,7.03
2018-07-16T02:07:24.630Z,8.00
2018-07-16T02:09:53.367Z,7.80
2018-07-16T02:12:22.031Z,7.10
2018-07-16T02:14:50.660Z,7.30
2018-07-16T02:17:19.298Z,7.90
2018-07-16T02:19:47.919Z,7.37
2018-07-16T02:22:16.560Z,7.70
2018-07-16T02:24:45.212Z,6.83
2018-07-16T02:27:13.908Z,6.97
2018-07-16T02:29:42.559Z,7.63
2018-07-16T02:32:11.296Z,7.10
2018-07-16T02:34:40.057Z,7.50
2018-07-16T02:37:08.687Z,7.60
2018-07-16T02:39:37.361Z,7.40
2018-07-16T02:42:05.992Z,7.83
2018-07-16T02:44:34.648Z,7.53
2018-07-16T02:47:03.392Z,8.20
2018-07-16T02:49:32.020Z,7.50
2018-07-16T02:52:00.660Z,8.50
2018-07-16T02:54:29.304Z,8.23
2018-07-16T02:56:57.944Z,8.37
2018-07-16T02:59:26.602Z,8.43
2018-07-16T03:01:55.302Z,8.30
2018-07-16T03:04:23.987Z,8.17
2018-07-16T03:06:52.652Z,8.60
2018-07-16T03:09:21.330Z,8.90
2018-07-16T03:11:50.184Z,8.70
2018-07-16T03:14:18.835Z,8.80
2018-07-16T03:16:47.451Z,8.43
2018-07-16T03:19:16.095Z,10.30
2018-07-16T03:21:44.730Z,9.60
2018-07-16T03:24:13.375Z,9.23
2018-07-16T03:26:42.047Z,8.80
2018-07-16T03:29:10.720Z,8.87
2018-07-16T03:31:39.439Z,8.27
2018-07-16T03:34:08.123Z,8.30
2018-07-16T03:36:36.757Z,8.70
2018-07-16T03:39:18.030Z,8.33
2018-07-16T03:41:46.671Z,8.87
2018-07-16T03:44:15.322Z,9.37
2018-07-16T03:46:43.978Z,9.47
2018-07-16T03:49:12.737Z,12.03
2018-07-16T03:51:41.535Z,10.03
2018-07-16T03:54:10.278Z,9.77
2018-07-16T03:56:38.969Z,9.47
2018-07-16T03:59:07.669Z,9.93
2018-07-16T04:01:36.348Z,10.43
2018-07-16T04:04:05.075Z,9.70
2018-07-16T04:06:33.721Z,9.10
2018-07-16T04:09:02.354Z,10.63
2018-07-16T04:11:31.004Z,10.30
2018-07-16T04:13:59.700Z,10.20
2018-07-16T04:16:28.406Z,10.17
2018-07-16T04:18:57.057Z,10.67
2018-07-16T04:21:25.730Z,10.97
2018-07-16T04:23:54.516Z,12.20
2018-07-16T04:26:23.175Z,10.97
2018-07-16T04:28:52.001Z,12.37
2018-07-16T04:31:20.895Z,11.13
2018-07-16T04:33:49.541Z,11.13
2018-07-16T04:36:18.299Z,11.40
2018-07-16T04:38:47.188Z,11.53
2018-07-16T04:41:15.957Z,11.37
2018-07-16T04:43:44.682Z,12.17
2018-07-16T04:46:13.336Z,11.83
2018-07-16T04:48:41.975Z,13.73
2018-07-16T04:51:10.609Z,12.93
2018-07-16T04:53:39.298Z,12.00
2018-07-16T04:56:08.083Z,11.27
2018-07-16T04:58:36.757Z,11.60
2018-07-16T05:01:05.430Z,12.00
2018-07-16T05:03:34.171Z,12.07
2018-07-16T05:06:02.807Z,11.80
2018-07-16T05:08:31.483Z,11.60
2018-07-16T05:11:00.130Z,11.40
2018-07-16T05:13:28.834Z,10.90
2018-07-16T05:15:57.569Z,11.00
2018-07-16T05:18:26.512Z,11.47
2018-07-16T05:20:54.936Z,13.27
2018-07-16T05:23:23.616Z,11.87
2018-07-16T05:25:52.308Z,11.67
2018-07-16T05:28:21.011Z,12.17
2018-07-16T05:30:49.681Z,11.47
2018-07-16T05:33:18.349Z,10.80
2018-07-16T05:35:46.994Z,11.60
2018-07-16T05:38:15.793Z,11.03
2018-07-16T05:40:44.407Z,11.47
2018-07-16T05:43:13.047Z,11.63
2018-07-16T05:45:41.709Z,11.93
2018-07-16T05:48:10.480Z,11.45
2018-07-16T05:50:39.151Z,11.38
2018-07-16T05:53:07.879Z,11.38
2018-07-16T05:55:36.527Z,11.25
2018-07-16T05:58:05.204Z,10.88
2018-07-16T06:00:33.830Z,10.38
2018-07-16T06:03:02.499Z,10.93
2018-07-16T06:05:31.182Z,11.35
2018-07-16T06:07:59.822Z,10.50
2018-07-16T06:10:28.548Z,11.15
2018-07-16T06:12:57.210Z,10.98
2018-07-16T06:15:25.870Z,10.05
2018-07-16T06:17:54.615Z,11.25
2018-07-16T06:20:23.254Z,10.95
2018-07-16T06:22:51.890Z,10.53
2018-07-16T06:25:20.553Z,11.30
2018-07-16T06:27:49.256Z,11.15
2018-07-16T06:30:17.903Z,11.15
2018-07-16T06:32:46.527Z,10.88
2018-07-16T06:35:15.203Z,11.00
2018-07-16T06:37:43.950Z,10.78
2018-07-16T06:40:13.067Z,11.68
2018-07-16T06:42:41.911Z,11.88
2018-07-16T06:45:10.640Z,10.25
2018-07-16T06:47:39.390Z,11.00
2018-07-16T06:50:08.355Z,9.93
2018-07-16T06:52:37.240Z,10.48
2018-07-16T06:55:06.449Z,10.45
2018-07-16T06:57:35.426Z,10.70
2018-07-16T07:00:07.453Z,9.05
2018-07-16T07:02:36.171Z,10.58
2018-07-16T07:05:04.872Z,11.60
2018-07-16T07:07:33.497Z,10.63
2018-07-16T07:10:02.207Z,10.95
2018-07-16T07:12:30.895Z,10.58
2018-07-16T07:14:59.618Z,10.00
2018-07-16T07:17:28.255Z,10.58
2018-07-16T07:19:56.915Z,10.43
2018-07-16T07:22:25.629Z,9.98
2018-07-16T07:24:54.297Z,10.03
2018-07-16T07:27:22.944Z,10.53
2018-07-16T07:29:51.602Z,10.05
2018-07-16T07:32:20.246Z,10.78
2018-07-16T07:34:49.000Z,11.48
2018-07-16T07:37:17.678Z,10.48
2018-07-16T07:39:46.480Z,10.23
2018-07-16T07:42:15.135Z,10.75
2018-07-16T07:44:43.906Z,11.00
2018-07-16T07:47:12.577Z,13.43
2018-07-16T07:49:41.239Z,10.82
2018-07-16T07:52:09.898Z,10.03
2018-07-16T07:54:38.731Z,10.80
2018-07-16T07:57:07.339Z,9.50
2018-07-16T07:59:35.986Z,9.38
2018-07-16T08:02:04.786Z,10.08
2018-07-16T08:04:33.459Z,9.50
2018-07-16T08:07:07.293Z,8.85
2018-07-16T08:09:35.944Z,8.20
2018-07-16T08:12:04.799Z,8.38
2018-07-16T08:14:33.635Z,8.08
2018-07-16T08:17:02.328Z,9.03
2018-07-16T08:19:30.996Z,8.90
2018-07-16T08:21:59.690Z,8.18
2018-07-16T08:24:28.424Z,8.33
2018-07-16T08:26:57.143Z,8.20
2018-07-16T08:29:25.936Z,7.87
2018-07-16T08:31:55.227Z,8.05
2018-07-16T08:34:23.890Z,7.47
2018-07-16T08:36:52.550Z,7.65
2018-07-16T08:39:21.307Z,7.75
2018-07-16T08:41:50.322Z,9.48
2018-07-16T08:44:19.040Z,7.03
2018-07-16T08:46:47.707Z,8.28
2018-07-16T08:49:16.342Z,7.92
2018-07-16T08:51:45.060Z,8.33
2018-07-16T08:54:13.802Z,7.33
2018-07-16T08:56:42.598Z,7.30
2018-07-16T08:59:11.310Z,7.80
2018-07-16T09:01:40.007Z,7.55
2018-07-16T09:04:08.752Z,8.13
2018-07-16T09:06:37.499Z,6.03
2018-07-16T09:09:06.583Z,6.25
2018-07-16T09:11:35.219Z,6.40
2018-07-16T09:14:04.033Z,7.60
2018-07-16T09:16:32.742Z,6.70
2018-07-16T09:19:01.447Z,6.67
2018-07-16T09:21:30.549Z,7.45
2018-07-16T09:23:59.223Z,6.22
2018-07-16T09:26:27.969Z,5.95
2018-07-16T09:28:56.594Z,6.30
2018-07-16T09:31:25.250Z,6.30
2018-07-16T09:33:53.903Z,6.50
2018-07-16T09:36:22.570Z,5.45
2018-07-16T09:38:51.258Z,5.67
2018-07-16T09:41:19.913Z,8.30
2018-07-16T09:43:48.672Z,7.12
2018-07-16T09:46:17.610Z,7.22
2018-07-16T09:48:46.258Z,6.03
2018-07-16T09:51:14.898Z,6.30
2018-07-16T09:53:43.530Z,5.60
2018-07-16T09:56:12.221Z,5.97
2018-07-16T09:58:40.890Z,8.55
2018-07-16T10:01:14.739Z,6.20
2018-07-16T10:03:43.383Z,6.08
2018-07-16T10:06:12.055Z,5.47
2018-07-16T10:08:40.710Z,6.25
2018-07-16T10:11:09.348Z,6.05
2018-07-16T10:13:38.027Z,13.83
2018-07-16T10:16:06.999Z,6.37
2018-07-16T10:18:35.642Z,5.80
2018-07-16T10:21:04.702Z,11.65
2018-07-16T10:23:33.383Z,5.85
2018-07-16T10:26:02.071Z,5.95
2018-07-16T10:28:30.779Z,7.28
2018-07-16T10:30:59.429Z,6.40
2018-07-16T10:33:28.131Z,5.53
2018-07-16T10:35:56.782Z,6.55
2018-07-16T10:38:25.635Z,5.50
2018-07-16T10:40:54.496Z,5.65
2018-07-16T10:43:23.161Z,6.40
2018-07-16T10:45:51.901Z,7.60
2018-07-16T10:48:20.547Z,8.50
2018-07-16T10:50:49.363Z,8.33
2018-07-16T10:53:18.076Z,5.95
2018-07-16T10:55:46.758Z,10.35
2018-07-16T10:58:15.443Z,6.42
2018-07-16T11:00:44.126Z,5.97
2018-07-16T11:03:12.880Z,6.30
2018-07-16T11:05:41.552Z,6.70
2018-07-16T11:08:11.043Z,6.20
2018-07-16T11:10:39.691Z,5.85
2018-07-16T11:13:08.428Z,5.80
2018-07-16T11:15:37.150Z,5.90
2018-07-16T11:18:05.813Z,5.85
2018-07-16T11:20:34.456Z,6.83
2018-07-16T11:23:03.184Z,5.85
2018-07-16T11:25:32.020Z,6.08
2018-07-16T11:28:00.707Z,6.35
2018-07-16T11:30:29.349Z,7.05
2018-07-16T11:32:58.054Z,5.72
2018-07-16T11:35:26.774Z,6.70
2018-07-16T11:37:55.556Z,7.12
2018-07-16T11:40:24.268Z,8.00
2018-07-16T11:42:52.931Z,7.80
2018-07-16T11:45:21.652Z,7.33
2018-07-16T11:47:50.335Z,6.70
2018-07-16T11:50:18.973Z,7.08
2018-07-16T11:52:47.640Z,8.63
2018-07-16T11:55:16.356Z,8.15
2018-07-16T11:57:45.086Z,8.20
2018-07-16T12:00:13.811Z,7.75
2018-07-16T12:02:42.496Z,7.67
2018-07-16T12:05:11.237Z,7.37
2018-07-16T12:07:39.880Z,6.65
2018-07-16T12:10:08.671Z,7.55
2018-07-16T12:12:37.513Z,6.97
2018-07-16T12:15:06.234Z,6.65
2018-07-16T12:17:34.881Z,6.33
2018-07-16T12:20:03.522Z,6.92
2018-07-16T12:22:32.291Z,6.30
2018-07-16T12:25:01.039Z,6.92
2018-07-16T12:27:29.745Z,6.70
2018-07-16T12:29:58.449Z,9.78
2018-07-16T12:32:27.119Z,6.62
2018-07-16T12:34:55.749Z,5.70
2018-07-16T12:37:24.470Z,6.75
2018-07-16T12:39:53.099Z,7.00
2018-07-16T12:42:21.860Z,6.58
2018-07-16T12:44:50.597Z,7.40
2018-07-16T12:47:19.367Z,6.30
2018-07-16T12:49:47.992Z,6.80
2018-07-16T12:52:16.629Z,7.58
2018-07-16T12:54:45.395Z,6.12
2018-07-16T12:57:14.056Z,6.72
2018-07-16T12:59:42.728Z,7.95
2018-07-16T13:02:11.661Z,11.88
2018-07-16T13:04:40.326Z,8.85
2018-07-16T13:07:08.956Z,6.67
2018-07-16T13:09:37.590Z,7.60
2018-07-16T13:12:06.519Z,7.92
2018-07-16T13:14:35.191Z,7.87
2018-07-16T13:17:03.914Z,8.08
2018-07-16T13:19:32.639Z,8.53
2018-07-16T13:22:01.269Z,7.65
2018-07-16T13:24:29.935Z,7.58
2018-07-16T13:26:58.623Z,7.97
2018-07-16T13:29:27.238Z,7.25
2018-07-16T13:31:55.943Z,7.58
2018-07-16T13:34:24.675Z,7.80
2018-07-16T13:36:53.349Z,7.35
2018-07-16T13:39:21.968Z,8.30
2018-07-16T13:41:50.626Z,7.17
2018-07-16T13:44:19.383Z,8.03
2018-07-16T13:46:48.121Z,7.17
2018-07-16T13:49:16.737Z,7.47
2018-07-16T13:51:45.390Z,8.08
2018-07-16T13:54:14.213Z,7.83
2018-07-16T13:56:43.031Z,7.65
2018-07-16T13:59:12.340Z,7.05
2018-07-16T14:01:41.043Z,6.55
2018-07-16T14:04:09.714Z,7.78
2018-07-16T14:06:38.323Z,7.67
2018-07-16T14:09:08.472Z,6.78
2018-07-16T14:11:37.240Z,6.75
2018-07-16T14:14:06.322Z,7.65
2018-07-16T14:16:35.005Z,7.87
2018-07-16T14:19:03.695Z,12.18
2018-07-16T14:21:32.324Z,7.28
2018-07-16T14:24:00.976Z,7.70
2018-07-16T14:26:29.574Z,8.50
2018-07-16T14:28:58.260Z,13.20
2018-07-16T14:31:27.017Z,7.97
2018-07-16T14:33:55.635Z,7.80
2018-07-16T14:36:24.288Z,7.50
2018-07-16T14:38:52.918Z,6.70
2018-07-16T14:41:21.574Z,7.37
2018-07-16T14:43:50.248Z,8.70
2018-07-16T14:46:18.863Z,6.55
2018-07-16T14:48:47.496Z,8.07
2018-07-16T14:51:16.306Z,6.67
2018-07-16T14:53:45.008Z,8.40
2018-07-16T14:56:13.695Z,5.83
2018-07-16T14:58:42.398Z,6.37
2018-07-16T15:01:11.095Z,5.80
2018-07-16T15:03:40.501Z,6.03
2018-07-16T15:06:09.340Z,6.73
2018-07-16T15:08:38.042Z,7.97
2018-07-16T15:11:06.902Z,6.20
2018-07-16T15:13:35.580Z,6.13
2018-07-16T15:16:04.469Z,6.13
2018-07-16T15:18:33.779Z,6.17
2018-07-16T15:21:08.018Z,5.80
2018-07-16T15:23:38.825Z,7.70
2018-07-16T15:26:08.375Z,5.80
2018-07-16T15:28:37.042Z,6.53
2018-07-16T15:31:05.786Z,6.43
2018-07-16T15:33:34.482Z,6.70
2018-07-16T15:36:04.761Z,6.23
2018-07-16T15:38:33.516Z,5.47
2018-07-16T15:41:02.247Z,6.40
2018-07-16T15:43:31.358Z,6.13
2018-07-16T15:46:00.199Z,6.00
2018-07-16T15:48:28.828Z,6.73
2018-07-16T15:50:57.495Z,7.83
2018-07-16T15:53:26.243Z,7.20
2018-07-16T15:55:55.174Z,7.13
2018-07-16T15:58:24.027Z,6.63
2018-07-16T16:00:52.749Z,5.90
2018-07-16T16:03:21.352Z,6.53
2018-07-16T16:05:59.808Z,6.07
2018-07-16T16:08:28.840Z,7.10
2018-07-16T16:11:10.961Z,6.67
2018-07-16T16:13:39.849Z,6.03
2018-07-16T16:16:08.642Z,7.40
2018-07-16T16:18:37.366Z,6.93
2018-07-16T16:21:06.178Z,6.87
2018-07-16T16:23:34.881Z,8.13
2018-07-16T16:26:03.667Z,6.43
2018-07-16T16:28:33.142Z,6.93
2018-07-16T16:31:01.848Z,6.97
2018-07-16T16:33:30.704Z,6.63
2018-07-16T16:35:59.483Z,8.83
2018-07-16T16:38:28.335Z,8.23
2018-07-16T16:40:57.075Z,7.00
2018-07-16T16:43:25.749Z,7.43
2018-07-16T16:45:54.540Z,8.90
2018-07-16T16:48:24.287Z,7.47
2018-07-16T16:50:52.977Z,7.57
2018-07-16T16:53:21.676Z,8.47
2018-07-16T16:55:50.394Z,7.20
2018-07-16T16:58:19.199Z,7.43
2018-07-16T17:00:47.964Z,7.07
2018-07-16T17:03:16.631Z,7.50
2018-07-16T17:05:45.791Z,7.30
2018-07-16T17:08:14.451Z,7.73
2018-07-16T17:10:43.136Z,7.50
2018-07-16T17:13:12.128Z,10.77
2018-07-16T17:15:40.810Z,10.63
2018-07-16T17:18:09.501Z,9.27
2018-07-16T17:20:38.131Z,7.30
2018-07-16T17:23:07.486Z,8.13
2018-07-16T17:25:36.213Z,7.80
2018-07-16T17:28:04.998Z,7.70
2018-07-16T17:30:33.707Z,8.03
2018-07-16T17:33:02.427Z,8.37
2018-07-16T17:35:31.127Z,9.03
2018-07-16T17:37:59.773Z,8.43
2018-07-16T17:40:28.558Z,10.10
2018-07-16T17:42:57.176Z,8.30
2018-07-16T17:45:25.871Z,8.10
2018-07-16T17:47:54.538Z,8.80
2018-07-16T17:50:23.220Z,8.37
2018-07-16T17:52:51.928Z,8.40
2018-07-16T17:55:20.663Z,8.77
2018-07-16T17:57:49.445Z,9.87
2018-07-16T18:00:18.203Z,8.33
2018-07-16T18:02:46.904Z,8.07
2018-07-16T18:05:16.250Z,8.10
2018-07-16T18:07:44.922Z,8.67
2018-07-16T18:10:13.634Z,9.30
2018-07-16T18:12:42.368Z,8.43
2018-07-16T18:15:11.093Z,9.83
2018-07-16T18:17:39.820Z,8.73
2018-07-16T18:20:08.503Z,9.30
2018-07-16T18:22:37.487Z,10.07
2018-07-16T18:25:06.172Z,11.93
2018-07-16T18:27:34.822Z,12.00
2018-07-16T18:30:04.492Z,15.60
2018-07-16T18:32:33.208Z,10.57
2018-07-16T18:35:01.930Z,10.97
2018-07-16T18:37:30.675Z,16.13
2018-07-16T18:39:59.332Z,12.30
2018-07-16T18:42:28.011Z,13.00
2018-07-16T18:44:56.662Z,13.17
2018-07-16T18:47:25.378Z,13.03
2018-07-16T18:49:54.046Z,19.70
2018-07-16T18:52:22.674Z,17.40
2018-07-16T18:54:51.577Z,13.03
2018-07-16T18:57:20.351Z,14.27
2018-07-16T18:59:49.655Z,13.57
2018-07-16T19:02:18.338Z,13.40
2018-07-16T19:04:47.002Z,12.20
2018-07-16T19:07:15.831Z,12.73
2018-07-16T19:09:44.535Z,15.30
2018-07-16T19:12:13.204Z,12.97
2018-07-16T19:14:41.847Z,12.03
2018-07-16T19:17:10.615Z,15.97
2018-07-16T19:19:39.361Z,19.37
2018-07-16T19:22:08.353Z,20.37
2018-07-16T19:24:37.034Z,21.77
2018-07-16T19:27:05.809Z,16.10
2018-07-16T19:29:35.209Z,15.93
2018-07-16T19:32:03.866Z,16.00
2018-07-16T19:34:32.526Z,14.90
2018-07-16T19:37:01.754Z,21.83
2018-07-16T19:39:30.495Z,14.47
2018-07-16T19:41:59.206Z,15.63
2018-07-16T19:44:28.506Z,16.37
2018-07-16T19:46:57.242Z,15.20
2018-07-16T19:49:25.900Z,15.93
2018-07-16T19:51:54.575Z,14.57
2018-07-16T19:54:23.329Z,19.00
2018-07-16T19:56:52.653Z,16.60
2018-07-16T19:59:21.871Z,20.93
2018-07-16T20:01:50.564Z,19.93
2018-07-16T20:04:19.187Z,21.90
2018-07-16T20:06:47.879Z,14.93
2018-07-16T20:09:16.651Z,22.10
2018-07-16T20:11:45.333Z,19.57
2018-07-16T20:14:15.074Z,27.47
2018-07-16T20:16:44.252Z,49.53
2018-07-16T20:19:13.352Z,32.50
2018-07-16T20:21:42.076Z,32.53
2018-07-16T20:24:10.790Z,27.90
2018-07-16T20:26:39.486Z,25.17
2018-07-16T20:29:08.187Z,28.57
2018-07-16T20:31:37.552Z,24.83
2018-07-16T20:34:06.340Z,29.07
2018-07-16T20:36:35.002Z,21.50
2018-07-16T20:39:04.478Z,22.10
2018-07-16T20:41:33.309Z,20.60
2018-07-16T20:44:02.022Z,19.67
2018-07-16T20:46:31.257Z,21.93
2018-07-16T20:48:59.904Z,15.60
2018-07-16T20:51:28.871Z,13.23
2018-07-16T20:53:58.003Z,13.17
2018-07-16T20:56:26.673Z,13.17
2018-07-16T20:58:55.505Z,14.00
2018-07-16T21:04:14.666Z,15.27
2018-07-16T21:06:43.556Z,14.17
2018-07-16T21:09:12.279Z,15.93
2018-07-16T21:11:40.941Z,17.23
2018-07-16T21:14:09.614Z,23.47
2018-07-16T21:16:38.707Z,24.20
2018-07-16T21:19:07.423Z,20.20
2018-07-16T21:21:36.216Z,21.07
2018-07-16T21:24:04.880Z,17.17
2018-07-16T21:26:33.573Z,17.37
2018-07-16T21:29:02.332Z,20.87
2018-07-16T21:31:31.110Z,20.07
2018-07-16T21:33:59.750Z,18.33
2018-07-16T21:36:28.484Z,18.30
2018-07-16T21:38:57.187Z,24.50
2018-07-16T21:41:25.860Z,19.23
2018-07-16T21:43:54.507Z,24.87
2018-07-16T21:46:23.279Z,21.67
2018-07-16T21:48:51.872Z,18.10
2018-07-16T21:51:20.502Z,14.40
2018-07-16T21:53:49.211Z,16.90
2018-07-16T21:56:17.867Z,16.03
2018-07-16T21:58:46.562Z,14.47
2018-07-16T22:01:15.249Z,13.97
2018-07-16T22:03:43.961Z,14.13
2018-07-16T22:06:12.615Z,14.97
2018-07-16T22:08:41.376Z,17.10
2018-07-16T22:11:10.042Z,15.13
2018-07-16T22:13:38.699Z,15.10
2018-07-16T22:16:07.628Z,16.17
2018-07-16T22:18:36.283Z,13.83
2018-07-16T22:21:04.907Z,13.63
2018-07-16T22:23:33.580Z,17.90
2018-07-16T22:26:02.295Z,16.67
2018-07-16T22:28:30.975Z,17.07
2018-07-16T22:30:59.687Z,15.30
2018-07-16T22:33:28.341Z,18.13
2018-07-16T22:35:57.026Z,16.83
2018-07-16T22:38:25.801Z,15.43
2018-07-16T22:40:54.491Z,14.80
2018-07-16T22:43:23.170Z,14.73
2018-07-16T22:45:51.856Z,17.47
2018-07-16T22:48:20.547Z,15.20
2018-07-16T22:50:49.250Z,13.73
2018-07-16T22:53:17.941Z,17.63
2018-07-16T22:55:46.892Z,38.27
2018-07-16T22:58:15.556Z,17.37
2018-07-16T23:00:44.226Z,14.97
2018-07-16T23:03:12.848Z,18.17
2018-07-16T23:05:41.513Z,18.93
2018-07-16T23:08:10.235Z,13.07
2018-07-16T23:10:38.870Z,12.17
2018-07-16T23:13:07.530Z,13.60
2018-07-16T23:15:36.219Z,12.93
2018-07-16T23:18:04.863Z,12.70
2018-07-16T23:20:33.548Z,12.33
2018-07-16T23:23:02.168Z,15.43
2018-07-16T23:25:30.771Z,12.97
2018-07-16T23:27:59.436Z,12.70
2018-07-16T23:30:28.131Z,12.70
2018-07-16T23:32:56.835Z,11.33
2018-07-16T23:35:49.119Z,12.33
2018-07-16T23:38:18.004Z,12.00
2018-07-16T23:40:46.725Z,11.73
2018-07-16T23:43:15.435Z,12.30
2018-07-16T23:45:44.428Z,12.07
2018-07-16T23:48:13.149Z,13.93
2018-07-16T23:50:41.905Z,11.90
2018-07-16T23:53:10.562Z,11.53
2018-07-16T23:55:39.329Z,12.70
2018-07-16T23:58:07.960Z,10.97
